Time;durP1;ratioP1;P1;durP2;ratioP2;P2;SDS_P1;SDS_P2;PMS_P1;PMS_P2;Temp;Humidity;BMP_temperature;BMP_pressure;BME280_temperature;BME280_humidity;BME280_pressure;Samples;Min_cycle;Max_cycle;Signal;HPM_P1;HPM_P2
2023/09/30 00:01:00;;;;;;;9.82;4.45;;;17.00;99.90;;;;;;5024164;28;20228;-29
2023/09/30 00:03:26;;;;;;;9.93;4.00;;;17.00;99.90;;;;;;5025046;28;20240;-28
2023/09/30 00:05:51;;;;;;;9.88;4.47;;;17.00;99.90;;;;;;5019064;28;20215;-28
2023/09/30 00:08:17;;;;;;;10.23;4.32;;;16.90;99.90;;;;;;5011710;28;20179;-29
2023/09/30 00:10:43;;;;;;;8.48;4.10;;;16.90;99.90;;;;;;5013750;28;20220;-28
2023/09/30 00:13:09;;;;;;;6.82;4.10;;;16.80;99.90;;;;;;5015516;28;20203;-29
2023/09/30 00:15:35;;;;;;;8.73;4.40;;;16.80;99.90;;;;;;5031972;28;20186;-28
2023/09/30 00:18:01;;;;;;;9.48;5.20;;;16.80;99.90;;;;;;5033594;28;20210;-28
2023/09/30 00:20:30;;;;;;;11.35;5.35;;;16.70;99.90;;;;;;5033702;28;20276;-28
2023/09/30 00:22:55;;;;;;;8.77;4.65;;;16.70;99.90;;;;;;5044231;28;20191;-28
2023/09/30 00:25:21;;;;;;;10.55;5.22;;;16.70;99.90;;;;;;5023236;28;20230;-29
2023/09/30 00:27:48;;;;;;;9.38;5.10;;;16.60;99.90;;;;;;5033582;28;20185;-28
2023/09/30 00:30:14;;;;;;;9.93;5.22;;;16.60;99.90;;;;;;5033519;28;20182;-28
2023/09/30 00:32:40;;;;;;;7.78;4.38;;;16.50;99.90;;;;;;5049963;28;20189;-28
2023/09/30 00:35:13;;;;;;;11.55;5.40;;;16.40;99.90;;;;;;5069812;23;20240;-30
2023/09/30 00:37:40;;;;;;;9.90;5.13;;;16.30;99.90;;;;;;5068829;28;20268;-30
2023/09/30 00:40:06;;;;;;;11.43;5.25;;;16.30;99.90;;;;;;5067782;28;20269;-30
2023/09/30 00:42:32;;;;;;;9.88;4.82;;;16.20;99.90;;;;;;5032751;28;20205;-30
2023/09/30 00:44:58;;;;;;;11.27;5.28;;;16.20;99.90;;;;;;5041980;28;20684;-30
2023/09/30 00:47:26;;;;;;;10.03;5.20;;;16.10;99.90;;;;;;5060122;28;20242;-30
2023/09/30 00:49:53;;;;;;;12.15;5.03;;;16.00;99.90;;;;;;5061735;28;20177;-30
2023/09/30 00:52:20;;;;;;;8.75;4.88;;;16.00;99.90;;;;;;5064704;28;20211;-30
2023/09/30 00:54:47;;;;;;;9.97;4.83;;;15.90;99.90;;;;;;5039535;28;20202;-30
2023/09/30 00:57:13;;;;;;;7.17;4.00;;;15.80;99.90;;;;;;5040825;28;20219;-30
2023/09/30 00:59:41;;;;;;;8.40;4.10;;;15.80;99.90;;;;;;5045086;28;20227;-30
2023/09/30 01:02:07;;;;;;;7.87;3.70;;;15.80;99.90;;;;;;5029823;28;20289;-30
2023/09/30 01:04:34;;;;;;;7.30;3.90;;;15.70;99.90;;;;;;5029062;28;20284;-30
2023/09/30 01:07:00;;;;;;;8.53;3.93;;;15.60;99.90;;;;;;5033011;28;20202;-30
2023/09/30 01:09:27;;;;;;;8.83;4.17;;;15.70;99.90;;;;;;5039595;28;20248;-30
2023/09/30 01:11:53;;;;;;;9.63;4.20;;;15.80;99.90;;;;;;5037864;28;20178;-30
2023/09/30 01:14:34;;;;;;;8.77;3.80;;;15.80;99.90;;;;;;5047174;28;20213;-30
2023/09/30 01:17:00;;;;;;;9.80;4.53;;;15.80;99.90;;;;;;5029185;28;20213;-30
2023/09/30 01:19:27;;;;;;;9.90;4.80;;;15.70;99.90;;;;;;5034507;28;20178;-30
2023/09/30 01:21:59;;;;;;;9.70;4.27;;;15.70;99.90;;;;;;5039519;28;20275;-30
2023/09/30 01:24:26;;;;;;;9.03;4.73;;;15.70;99.90;;;;;;5058032;28;20262;-30
2023/09/30 01:26:53;;;;;;;8.03;4.23;;;15.60;99.90;;;;;;5051625;28;20216;-30
2023/09/30 01:29:19;;;;;;;9.03;4.80;;;15.60;99.90;;;;;;5019713;28;20185;-30
2023/09/30 01:31:47;;;;;;;9.50;4.80;;;15.60;99.90;;;;;;5038932;28;20185;-30
2023/09/30 01:34:15;;;;;;;11.33;5.03;;;15.70;99.90;;;;;;5050109;28;20244;-30
2023/09/30 01:36:42;;;;;;;9.13;4.57;;;15.70;99.90;;;;;;5045121;28;20253;-30
2023/09/30 01:39:13;;;;;;;9.17;4.27;;;15.70;99.90;;;;;;5048618;28;20186;-30
2023/09/30 01:41:39;;;;;;;9.17;4.57;;;15.70;99.90;;;;;;5045146;28;20186;-30
2023/09/30 01:44:07;;;;;;;8.87;4.37;;;15.70;99.90;;;;;;5046290;28;20205;-30
2023/09/30 01:46:33;;;;;;;9.63;4.80;;;15.60;99.90;;;;;;5049922;28;20209;-30
2023/09/30 01:49:00;;;;;;;9.70;4.53;;;15.60;99.90;;;;;;5066191;28;20224;-30
2023/09/30 01:51:25;;;;;;;9.13;4.30;;;15.60;99.90;;;;;;5040424;28;20178;-30
2023/09/30 01:53:51;;;;;;;11.37;4.87;;;15.60;99.90;;;;;;5062138;28;20205;-30
2023/09/30 01:56:17;;;;;;;10.13;5.10;;;15.60;99.90;;;;;;5045591;28;20189;-30
2023/09/30 01:58:43;;;;;;;10.03;4.47;;;15.50;99.90;;;;;;5075680;28;20181;-30
2023/09/30 02:01:09;;;;;;;9.57;4.80;;;15.40;99.90;;;;;;5064803;28;20185;-30
2023/09/30 02:03:35;;;;;;;9.37;4.47;;;15.30;99.90;;;;;;5075352;28;20232;-30
2023/09/30 02:06:00;;;;;;;10.97;4.57;;;15.20;99.90;;;;;;5066118;28;20208;-30
2023/09/30 02:08:26;;;;;;;10.93;5.17;;;15.10;99.90;;;;;;5046412;28;20182;-30
2023/09/30 02:10:52;;;;;;;8.87;4.60;;;15.10;99.90;;;;;;5047591;28;20178;-30
2023/09/30 02:13:19;;;;;;;9.80;4.83;;;15.10;99.90;;;;;;5035774;28;20234;-30
2023/09/30 02:15:44;;;;;;;10.97;4.90;;;15.10;99.90;;;;;;5042404;28;20189;-30
2023/09/30 02:18:10;;;;;;;9.43;4.60;;;15.00;99.90;;;;;;5070917;28;20177;-30
2023/09/30 02:20:40;;;;;;;9.07;4.90;;;15.00;99.90;;;;;;5044875;28;20182;-30
2023/09/30 02:23:07;;;;;;;8.33;4.70;;;15.10;99.90;;;;;;5038208;28;20236;-30
2023/09/30 02:25:33;;;;;;;10.70;5.13;;;15.10;99.90;;;;;;5046635;28;20686;-30
2023/09/30 02:28:00;;;;;;;9.13;4.77;;;15.20;99.90;;;;;;5071579;28;20234;-30
2023/09/30 02:30:27;;;;;;;8.87;4.77;;;15.30;99.90;;;;;;5044753;28;20274;-30
2023/09/30 02:32:53;;;;;;;10.00;4.27;;;15.20;99.90;;;;;;5048508;28;20189;-30
2023/09/30 02:35:20;;;;;;;9.47;4.43;;;15.30;99.90;;;;;;5039586;28;20213;-30
2023/09/30 02:37:46;;;;;;;9.23;4.70;;;15.30;99.90;;;;;;5051633;28;20220;-30
2023/09/30 02:40:14;;;;;;;9.27;4.40;;;15.40;99.90;;;;;;5037856;28;20237;-30
2023/09/30 02:42:41;;;;;;;9.80;4.50;;;15.40;99.90;;;;;;5030312;28;20189;-30
2023/09/30 02:45:08;;;;;;;10.43;4.77;;;15.40;99.90;;;;;;5033876;28;20230;-30
2023/09/30 02:47:34;;;;;;;7.47;4.10;;;15.40;99.90;;;;;;5068649;28;20178;-30
2023/09/30 02:50:01;;;;;;;10.20;4.70;;;15.40;99.90;;;;;;5047031;28;20189;-30
2023/09/30 02:52:28;;;;;;;8.60;4.60;;;15.50;99.90;;;;;;5030117;28;20183;-30
2023/09/30 02:54:55;;;;;;;8.67;4.57;;;15.40;99.90;;;;;;5049896;28;20211;-30
2023/09/30 02:57:21;;;;;;;9.60;4.47;;;15.50;99.90;;;;;;5064122;28;20192;-29
2023/09/30 02:59:47;;;;;;;10.20;4.73;;;15.50;99.90;;;;;;5066156;28;20178;-30
2023/09/30 03:02:15;;;;;;;9.23;4.33;;;15.50;99.90;;;;;;5044535;28;20182;-30
2023/09/30 03:04:42;;;;;;;8.50;3.90;;;15.40;99.90;;;;;;5044960;28;20199;-30
2023/09/30 03:07:08;;;;;;;8.13;4.43;;;15.50;99.90;;;;;;5039871;28;20270;-30
2023/09/30 03:09:35;;;;;;;7.57;4.00;;;15.50;99.90;;;;;;5040282;28;20190;-30
2023/09/30 03:12:04;;;;;;;6.40;3.90;;;15.50;99.90;;;;;;5049465;28;20178;-30
2023/09/30 03:14:31;;;;;;;8.67;4.47;;;15.60;99.90;;;;;;5055360;28;20206;-30
2023/09/30 03:16:58;;;;;;;9.47;4.40;;;15.60;99.90;;;;;;5054785;28;20268;-30
2023/09/30 03:19:24;;;;;;;10.30;4.60;;;15.60;99.90;;;;;;5050744;28;20234;-30
2023/09/30 03:21:50;;;;;;;10.17;4.77;;;15.50;99.90;;;;;;5047980;28;20193;-30
2023/09/30 03:24:16;;;;;;;9.70;4.27;;;15.50;99.90;;;;;;5063806;28;20216;-29
2023/09/30 03:26:42;;;;;;;9.30;4.33;;;15.40;99.90;;;;;;5040130;28;20292;-30
2023/09/30 03:29:12;;;;;;;10.33;4.73;;;15.40;99.90;;;;;;5036417;28;20189;-29
2023/09/30 03:31:38;;;;;;;8.87;4.20;;;15.50;99.90;;;;;;5038423;28;20265;-30
2023/09/30 03:34:04;;;;;;;9.30;4.13;;;15.50;99.90;;;;;;5070658;28;20760;-30
2023/09/30 03:36:30;;;;;;;9.43;4.53;;;15.40;99.90;;;;;;5059353;28;20192;-29
2023/09/30 03:39:05;;;;;;;8.03;4.40;;;15.30;99.90;;;;;;5053399;28;20177;-30
2023/09/30 03:41:37;;;;;;;9.47;4.40;;;15.20;99.90;;;;;;5044023;28;20204;-30
2023/09/30 03:44:03;;;;;;;8.83;4.43;;;15.00;99.90;;;;;;5035197;28;20205;-30
2023/09/30 03:46:30;;;;;;;7.77;4.10;;;15.00;99.90;;;;;;5042291;28;20586;-30
2023/09/30 03:48:56;;;;;;;8.97;4.50;;;14.90;99.90;;;;;;5050098;28;20173;-30
2023/09/30 03:51:24;;;;;;;8.87;4.63;;;14.90;99.90;;;;;;5040461;28;20182;-30
2023/09/30 03:53:51;;;;;;;8.03;4.17;;;15.00;99.90;;;;;;5053580;28;20259;-30
2023/09/30 03:56:18;;;;;;;6.77;3.90;;;14.90;99.90;;;;;;5041064;28;20209;-30
2023/09/30 03:58:44;;;;;;;9.20;4.47;;;14.90;99.90;;;;;;5039790;28;20194;-30
2023/09/30 04:01:11;;;;;;;8.03;4.33;;;14.90;99.90;;;;;;5038970;28;20178;-30
2023/09/30 04:03:39;;;;;;;9.10;4.60;;;14.80;99.90;;;;;;5044569;28;20204;-30
2023/09/30 04:06:08;;;;;;;8.67;4.37;;;14.80;99.90;;;;;;5058173;28;20213;-30
2023/09/30 04:08:35;;;;;;;7.77;4.27;;;14.70;99.90;;;;;;5038001;28;20181;-30
2023/09/30 04:11:04;;;;;;;8.47;4.17;;;14.50;99.90;;;;;;5047872;28;20174;-30
2023/09/30 04:13:31;;;;;;;9.47;4.53;;;14.40;99.90;;;;;;5028768;28;20193;-30
2023/09/30 04:15:58;;;;;;;10.27;4.57;;;14.50;99.90;;;;;;5040445;28;20181;-30
2023/09/30 04:18:26;;;;;;;8.07;4.07;;;14.40;99.90;;;;;;5061796;28;20231;-30
2023/09/30 04:20:52;;;;;;;8.20;3.83;;;14.40;99.90;;;;;;5040223;28;20181;-30
2023/09/30 04:23:20;;;;;;;8.00;4.23;;;14.50;99.90;;;;;;5040602;28;20177;-30
2023/09/30 04:25:46;;;;;;;8.20;4.00;;;14.50;99.90;;;;;;5036785;28;20228;-30
2023/09/30 04:28:13;;;;;;;7.50;4.37;;;14.50;99.90;;;;;;5055632;28;20190;-30
2023/09/30 04:30:40;;;;;;;9.37;4.53;;;14.50;99.90;;;;;;5054720;28;20175;-30
2023/09/30 04:33:07;;;;;;;7.83;4.40;;;14.40;99.90;;;;;;5053119;28;20208;-30
2023/09/30 04:35:35;;;;;;;7.63;4.00;;;14.40;99.90;;;;;;5031196;28;20198;-30
2023/09/30 04:38:01;;;;;;;8.83;4.30;;;14.40;99.90;;;;;;5042972;28;20180;-30
2023/09/30 04:40:27;;;;;;;8.57;4.50;;;14.40;99.90;;;;;;5042351;28;20231;-30
2023/09/30 04:42:58;;;;;;;8.10;4.13;;;14.50;99.90;;;;;;5046975;28;20182;-30
2023/09/30 04:45:27;;;;;;;7.47;3.87;;;14.50;99.90;;;;;;5042034;28;20238;-30
2023/09/30 04:47:56;;;;;;;8.23;4.43;;;14.50;99.90;;;;;;5030514;28;20193;-30
2023/09/30 04:50:23;;;;;;;8.77;3.80;;;14.50;99.90;;;;;;5056251;28;20215;-30
2023/09/30 04:52:51;;;;;;;8.50;4.43;;;14.40;99.90;;;;;;5045036;28;20252;-30
2023/09/30 04:55:18;;;;;;;9.57;4.53;;;14.40;99.90;;;;;;5037269;28;20228;-30
2023/09/30 04:57:45;;;;;;;8.30;4.83;;;14.40;99.90;;;;;;5044086;28;20231;-30
2023/09/30 05:00:17;;;;;;;9.43;5.33;;;14.30;99.90;;;;;;5048581;28;20267;-30
2023/09/30 05:02:47;;;;;;;7.20;4.30;;;14.30;99.90;;;;;;5030532;28;20197;-30
2023/09/30 05:05:14;;;;;;;10.47;4.43;;;14.40;99.90;;;;;;5046679;28;20693;-30
2023/09/30 05:07:43;;;;;;;7.70;4.20;;;14.40;99.90;;;;;;5055292;28;20182;-30
2023/09/30 05:10:15;;;;;;;8.83;4.20;;;14.40;99.90;;;;;;5051324;28;20213;-30
2023/09/30 05:12:45;;;;;;;11.43;4.90;;;14.40;99.90;;;;;;5025534;28;20174;-30
2023/09/30 05:15:15;;;;;;;8.00;4.57;;;14.40;99.90;;;;;;5036120;28;20223;-30
2023/09/30 05:17:45;;;;;;;9.20;4.40;;;14.40;99.90;;;;;;5038412;28;20281;-30
2023/09/30 05:20:12;;;;;;;8.10;4.33;;;14.50;99.90;;;;;;5050428;28;20185;-30
2023/09/30 05:22:40;;;;;;;9.17;3.90;;;14.50;99.90;;;;;;5036075;28;20183;-30
2023/09/30 05:25:07;;;;;;;8.00;4.23;;;14.60;99.90;;;;;;5044971;28;20213;-30
2023/09/30 05:27:33;;;;;;;10.67;4.60;;;14.70;99.90;;;;;;5044925;28;20216;-30
2023/09/30 05:29:59;;;;;;;6.50;4.07;;;14.70;99.90;;;;;;5059523;28;20173;-30
2023/09/30 05:32:26;;;;;;;9.50;4.77;;;14.70;99.90;;;;;;5035116;28;20175;-29
2023/09/30 05:34:53;;;;;;;7.53;4.43;;;14.80;99.90;;;;;;5044228;28;20220;-30
2023/09/30 05:37:21;;;;;;;8.43;4.33;;;14.80;99.90;;;;;;5052742;28;20260;-29
2023/09/30 05:39:50;;;;;;;13.03;5.03;;;14.90;99.90;;;;;;5051136;28;20205;-30
2023/09/30 05:42:18;;;;;;;8.97;4.20;;;14.90;99.90;;;;;;5032348;28;20200;-30
2023/09/30 05:44:45;;;;;;;12.10;4.83;;;14.90;99.90;;;;;;5058921;28;20193;-30
2023/09/30 05:47:11;;;;;;;8.77;4.37;;;14.80;99.90;;;;;;5052575;28;20188;-30
2023/09/30 05:49:37;;;;;;;7.23;4.10;;;14.70;99.90;;;;;;5051118;28;20178;-30
2023/09/30 05:52:05;;;;;;;9.60;4.53;;;14.60;99.90;;;;;;5054079;28;20192;-30
2023/09/30 05:54:31;;;;;;;8.70;4.17;;;14.60;99.90;;;;;;5039915;28;20249;-30
2023/09/30 05:56:56;;;;;;;8.67;4.37;;;14.60;99.90;;;;;;5038572;28;20218;-30
2023/09/30 05:59:24;;;;;;;10.03;4.27;;;14.50;99.90;;;;;;5020842;28;20183;-29
2023/09/30 06:01:51;;;;;;;8.40;4.27;;;14.40;99.90;;;;;;5033585;28;20208;-30
2023/09/30 06:04:17;;;;;;;7.77;3.87;;;14.50;99.90;;;;;;5033131;28;20351;-30
2023/09/30 06:06:43;;;;;;;9.87;4.37;;;14.50;99.90;;;;;;5032121;28;20808;-30
2023/09/30 06:09:09;;;;;;;9.23;4.80;;;14.50;99.90;;;;;;5033775;28;20254;-30
2023/09/30 06:11:35;;;;;;;9.33;4.63;;;14.50;99.90;;;;;;5028410;28;20228;-29
2023/09/30 06:14:02;;;;;;;10.73;4.90;;;14.40;99.90;;;;;;5031701;28;20197;-30
2023/09/30 06:16:29;;;;;;;7.30;4.20;;;14.50;99.90;;;;;;5045628;28;20182;-30
2023/09/30 06:18:55;;;;;;;7.87;4.67;;;14.50;99.90;;;;;;5043276;28;20174;-30
2023/09/30 06:21:28;;;;;;;9.47;4.60;;;14.50;99.90;;;;;;5052261;28;20177;-30
2023/09/30 06:23:55;;;;;;;8.00;4.30;;;14.50;99.90;;;;;;5042759;28;20261;-29
2023/09/30 06:26:21;;;;;;;8.60;5.00;;;14.50;99.90;;;;;;5033140;28;20206;-29
2023/09/30 06:28:47;;;;;;;9.03;4.60;;;14.50;99.90;;;;;;5066237;28;20196;-30
2023/09/30 06:31:15;;;;;;;9.50;5.27;;;14.50;99.90;;;;;;5031764;28;20174;-30
2023/09/30 06:36:20;;;;;;;9.47;5.20;;;14.50;99.90;;;;;;5063633;28;20262;-39
2023/09/30 06:38:52;;;;;;;9.20;5.63;;;14.60;99.90;;;;;;5054612;28;20266;-40
2023/09/30 06:41:30;;;;;;;9.80;5.47;;;14.60;99.90;;;;;;5037567;28;20178;-39
2023/09/30 06:43:57;;;;;;;10.93;4.97;;;14.70;99.90;;;;;;5029554;28;20216;-40
2023/09/30 06:46:23;;;;;;;10.77;5.17;;;14.70;99.90;;;;;;5029493;28;20300;-38
2023/09/30 06:48:52;;;;;;;9.87;5.33;;;14.70;99.90;;;;;;5019827;28;20218;-39
2023/09/30 06:51:18;;;;;;;12.77;6.80;;;14.70;99.90;;;;;;5006444;28;20178;-39
2023/09/30 06:53:45;;;;;;;10.77;5.77;;;14.60;99.90;;;;;;5025930;28;20300;-39
2023/09/30 06:56:12;;;;;;;10.57;6.37;;;14.70;99.90;;;;;;5014745;28;20186;-39
2023/09/30 06:58:38;;;;;;;11.07;5.73;;;14.70;99.90;;;;;;5035001;28;20201;-39
2023/09/30 07:01:04;;;;;;;12.03;5.37;;;14.80;99.90;;;;;;5014631;28;20181;-36
2023/09/30 07:03:30;;;;;;;10.00;5.63;;;14.90;99.90;;;;;;5009028;28;20261;-39
2023/09/30 07:06:00;;;;;;;12.17;5.87;;;15.00;99.90;;;;;;5039799;28;20202;-39
2023/09/30 07:08:28;;;;;;;9.33;5.23;;;15.10;99.90;;;;;;5001828;28;20257;-40
2023/09/30 07:10:54;;;;;;;10.30;5.70;;;15.20;99.90;;;;;;5005139;28;20184;-37
2023/09/30 07:13:22;;;;;;;11.10;5.97;;;15.20;99.90;;;;;;5025717;28;20231;-40
2023/09/30 07:15:50;;;;;;;9.97;5.23;;;15.10;99.90;;;;;;5030953;28;20205;-39
2023/09/30 07:18:18;;;;;;;10.50;5.13;;;15.20;99.90;;;;;;5010911;28;20186;-40
2023/09/30 07:20:51;;;;;;;10.13;5.47;;;15.20;99.90;;;;;;5018554;28;20190;-39
2023/09/30 07:23:21;;;;;;;11.47;5.80;;;15.30;99.90;;;;;;5028931;28;20185;-39
2023/09/30 07:25:49;;;;;;;11.80;5.27;;;15.40;99.90;;;;;;5011477;28;20209;-40
2023/09/30 07:28:16;;;;;;;11.03;5.73;;;15.40;99.90;;;;;;5030024;28;20704;-39
2023/09/30 07:30:44;;;;;;;10.83;5.40;;;15.40;99.90;;;;;;5033307;28;20261;-39
2023/09/30 07:33:19;;;;;;;10.90;4.83;;;15.50;99.90;;;;;;5000231;28;20201;-39
2023/09/30 07:35:47;;;;;;;8.10;4.77;;;15.60;99.90;;;;;;5031319;28;20198;-39
2023/09/30 07:38:14;;;;;;;10.43;5.10;;;15.70;99.90;;;;;;5029362;28;20188;-37
2023/09/30 07:40:41;;;;;;;9.33;4.73;;;15.80;99.90;;;;;;5031196;28;20201;-38
2023/09/30 07:43:07;;;;;;;10.20;5.30;;;15.90;99.90;;;;;;5016556;28;20186;-39
2023/09/30 07:45:33;;;;;;;9.57;4.80;;;16.00;99.90;;;;;;5012742;28;20198;-39
2023/09/30 07:47:59;;;;;;;11.10;5.73;;;16.10;99.90;;;;;;4996961;28;20182;-39
2023/09/30 07:50:25;;;;;;;9.87;5.10;;;16.10;99.90;;;;;;5000246;28;20182;-39
2023/09/30 07:52:52;;;;;;;7.53;4.57;;;16.10;99.90;;;;;;5014150;28;20186;-39
2023/09/30 07:55:19;;;;;;;10.20;5.23;;;16.20;99.90;;;;;;5015243;28;20228;-38
2023/09/30 07:57:46;;;;;;;9.27;5.10;;;16.30;99.90;;;;;;4997592;28;20218;-39
2023/09/30 08:00:15;;;;;;;9.55;4.43;;;16.40;99.90;;;;;;5009085;28;20189;-35
2023/09/30 08:02:42;;;;;;;8.98;4.75;;;16.40;99.90;;;;;;5012040;28;20182;-39
2023/09/30 08:05:08;;;;;;;6.05;4.00;;;16.40;99.90;;;;;;5005184;28;20206;-39
2023/09/30 08:07:34;;;;;;;8.90;4.80;;;16.50;99.90;;;;;;5015074;28;20178;-40
2023/09/30 08:10:00;;;;;;;7.32;4.20;;;16.60;99.90;;;;;;5029416;28;20256;-39
2023/09/30 08:12:26;;;;;;;8.15;3.80;;;16.80;99.90;;;;;;5031196;28;20182;-39
2023/09/30 08:14:52;;;;;;;8.68;4.20;;;16.90;99.90;;;;;;5029978;28;20255;-37
2023/09/30 08:17:18;;;;;;;10.98;5.30;;;17.10;99.90;;;;;;5033251;28;20189;-39
2023/09/30 08:19:44;;;;;;;8.23;5.20;;;17.30;99.90;;;;;;5029749;28;20174;-39
2023/09/30 08:22:10;;;;;;;10.27;4.78;;;17.40;99.90;;;;;;5031587;28;20208;-37
2023/09/30 08:24:37;;;;;;;8.93;4.47;;;17.50;99.90;;;;;;5030944;28;20193;-40
2023/09/30 08:27:03;;;;;;;9.07;4.35;;;17.60;99.90;;;;;;5032733;28;20213;-39
2023/09/30 08:29:28;;;;;;;6.93;3.92;;;17.70;99.90;;;;;;5032387;28;20189;-38
2023/09/30 08:31:54;;;;;;;8.15;4.47;;;17.80;99.90;;;;;;5049257;28;20178;-39
2023/09/30 08:34:21;;;;;;;7.70;4.70;;;17.90;99.90;;;;;;5030756;28;20217;-39
2023/09/30 08:36:47;;;;;;;8.57;5.38;;;18.10;99.90;;;;;;5032712;28;20234;-38
2023/09/30 08:39:14;;;;;;;9.80;4.55;;;18.20;99.90;;;;;;5011894;28;20269;-40
2023/09/30 08:41:39;;;;;;;13.02;6.18;;;18.30;99.90;;;;;;4998093;28;20273;-39
2023/09/30 08:44:05;;;;;;;8.50;5.47;;;18.30;99.90;;;;;;5006311;28;20305;-37
2023/09/30 08:46:33;;;;;;;8.82;5.07;;;18.30;99.90;;;;;;5013079;28;20206;-33
2023/09/30 08:49:03;;;;;;;8.80;4.75;;;18.40;99.90;;;;;;5019325;28;20183;-37
2023/09/30 08:51:30;;;;;;;9.05;4.95;;;18.50;99.90;;;;;;5023910;28;20221;-37
2023/09/30 08:53:57;;;;;;;8.85;4.95;;;18.60;99.90;;;;;;5008023;28;20351;-35
2023/09/30 08:56:28;;;;;;;9.07;4.90;;;18.70;99.90;;;;;;5016376;28;20178;-34
2023/09/30 08:58:58;;;;;;;7.03;4.65;;;18.80;99.90;;;;;;5016523;28;20271;-35
2023/09/30 09:01:29;;;;;;;6.88;4.13;;;18.80;99.90;;;;;;5016752;28;20183;-35
2023/09/30 09:03:56;;;;;;;8.88;4.38;;;19.00;99.90;;;;;;5032365;28;20214;-38
2023/09/30 09:06:23;;;;;;;7.90;4.40;;;19.10;99.90;;;;;;5033093;28;20296;-34
2023/09/30 09:08:50;;;;;;;9.95;4.78;;;19.20;99.90;;;;;;5032964;28;20178;-38
2023/09/30 09:11:17;;;;;;;7.53;3.83;;;19.30;99.90;;;;;;5019500;28;20643;-39
2023/09/30 09:13:56;;;;;;;7.05;4.15;;;19.40;99.90;;;;;;5020473;28;20198;-35
2023/09/30 09:16:23;;;;;;;7.55;4.50;;;19.50;99.90;;;;;;5008977;28;20201;-36
2023/09/30 09:18:50;;;;;;;9.23;4.30;;;19.50;99.90;;;;;;5015963;28;20186;-39
2023/09/30 09:21:22;;;;;;;8.70;4.88;;;19.50;99.90;;;;;;5016341;28;20221;-39
2023/09/30 09:23:50;;;;;;;7.75;4.60;;;19.60;99.90;;;;;;5016240;28;20212;-35
2023/09/30 09:26:29;;;;;;;7.93;4.60;;;19.60;99.90;;;;;;5032698;28;20201;-38
2023/09/30 09:29:03;;;;;;;7.68;4.80;;;19.60;99.90;;;;;;5016524;28;20186;-35
2023/09/30 09:31:34;;;;;;;7.72;4.63;;;19.70;99.90;;;;;;5019880;28;20295;-35
2023/09/30 09:34:02;;;;;;;6.93;4.50;;;19.60;99.90;;;;;;5019811;28;20197;-37
2023/09/30 09:36:39;;;;;;;6.70;4.13;;;19.60;99.90;;;;;;5020340;28;20189;-34
2023/09/30 09:39:06;;;;;;;7.38;4.68;;;19.70;99.90;;;;;;5020026;28;20189;-36
2023/09/30 09:41:32;;;;;;;7.28;4.00;;;19.80;99.90;;;;;;5021063;28;20182;-35
2023/09/30 09:44:02;;;;;;;7.03;4.47;;;19.90;99.90;;;;;;4995755;28;20202;-36
2023/09/30 09:46:35;;;;;;;9.10;4.68;;;20.00;99.90;;;;;;5014828;28;20220;-34
2023/09/30 09:49:10;;;;;;;7.15;4.00;;;20.20;99.90;;;;;;5030746;28;20200;-37
2023/09/30 09:51:44;;;;;;;7.47;4.60;;;20.30;99.90;;;;;;5029196;28;20174;-38
2023/09/30 09:54:18;;;;;;;5.63;3.83;;;20.50;99.90;;;;;;5016220;28;20244;-37
2023/09/30 09:56:46;;;;;;;7.22;4.35;;;20.40;99.90;;;;;;5011992;28;20217;-36
2023/09/30 09:59:14;;;;;;;6.00;3.88;;;20.60;99.90;;;;;;5010533;28;20186;-38
2023/09/30 10:01:41;;;;;;;7.07;4.28;;;20.70;99.90;;;;;;5007532;28;20179;-35
2023/09/30 10:04:15;;;;;;;7.13;4.40;;;20.80;99.90;;;;;;5027367;28;20203;-37
2023/09/30 10:06:48;;;;;;;6.03;4.57;;;20.80;99.90;;;;;;5018798;28;20263;-38
2023/09/30 10:09:17;;;;;;;6.22;3.97;;;20.90;99.90;;;;;;5035551;28;20212;-34
2023/09/30 10:11:44;;;;;;;6.57;4.30;;;21.00;99.90;;;;;;5002812;28;20198;-38
2023/09/30 10:14:33;;;;;;;6.35;4.10;;;20.90;99.90;;;;;;5033049;28;20202;-39
2023/09/30 10:16:59;;;;;;;8.18;4.80;;;21.10;99.90;;;;;;5019605;28;20240;-38
2023/09/30 10:19:27;;;;;;;9.00;4.68;;;21.30;99.90;;;;;;5015410;28;20189;-38
2023/09/30 10:22:27;;;;;;;6.35;4.20;;;21.40;99.90;;;;;;5031866;28;20225;-38
2023/09/30 10:24:59;;;;;;;5.57;3.67;;;21.40;99.90;;;;;;5019396;28;20210;-36
2023/09/30 10:27:25;;;;;;;9.75;4.72;;;21.50;99.90;;;;;;5008261;28;20192;-36
2023/09/30 10:29:58;;;;;;;6.85;4.65;;;21.40;99.90;;;;;;5017543;28;20182;-37
2023/09/30 10:32:50;;;;;;;8.93;4.70;;;21.30;99.90;;;;;;5017209;28;20174;-36
2023/09/30 10:35:36;;;;;;;8.45;4.45;;;21.20;99.90;;;;;;5033244;28;20218;-36
2023/09/30 10:38:24;;;;;;;9.63;5.10;;;21.30;99.90;;;;;;5020080;28;20193;-37
2023/09/30 10:40:53;;;;;;;8.02;4.50;;;21.40;99.90;;;;;;4996040;28;20185;-37
2023/09/30 10:43:33;;;;;;;7.07;4.05;;;21.40;99.90;;;;;;5005297;28;20206;-38
2023/09/30 10:46:26;;;;;;;7.35;4.72;;;21.50;99.90;;;;;;5000150;28;20198;-35
2023/09/30 10:48:52;;;;;;;9.38;4.47;;;21.50;99.90;;;;;;4995454;28;20178;-39
2023/09/30 10:51:21;;;;;;;8.02;4.97;;;21.70;99.90;;;;;;5029388;28;20197;-38
2023/09/30 10:54:00;;;;;;;8.52;5.35;;;21.90;99.90;;;;;;5008516;28;20238;-36
2023/09/30 10:56:32;;;;;;;8.02;4.80;;;22.10;99.90;;;;;;5010872;28;20185;-39
2023/09/30 10:58:59;;;;;;;10.13;5.80;;;22.10;99.90;;;;;;5008659;28;20221;-39
2023/09/30 11:01:25;;;;;;;9.35;4.93;;;22.10;99.90;;;;;;5009332;28;20206;-37
2023/09/30 11:03:59;;;;;;;8.90;5.40;;;22.10;99.90;;;;;;5016880;28;20210;-37
2023/09/30 11:06:25;;;;;;;6.88;4.88;;;22.20;99.90;;;;;;5016435;28;20205;-39
2023/09/30 11:09:01;;;;;;;10.40;5.05;;;22.20;99.90;;;;;;5000242;28;20175;-37
2023/09/30 11:11:55;;;;;;;9.38;5.40;;;22.40;99.90;;;;;;4996312;28;20189;-39
2023/09/30 11:14:30;;;;;;;9.35;5.82;;;22.50;99.90;;;;;;5014290;28;20264;-33
2023/09/30 11:17:03;;;;;;;7.78;5.25;;;22.30;99.90;;;;;;5005789;28;20265;-38
2023/09/30 11:19:52;;;;;;;12.82;6.10;;;22.40;99.90;;;;;;5019504;28;20280;-39
2023/09/30 11:22:21;;;;;;;10.50;5.68;;;22.40;99.90;;;;;;5014910;28;20244;-37
2023/09/30 11:24:49;;;;;;;10.73;6.13;;;22.40;99.90;;;;;;5017149;28;20272;-36
2023/09/30 11:27:27;;;;;;;10.80;6.35;;;22.40;99.90;;;;;;5018396;28;20213;-39
2023/09/30 11:29:54;;;;;;;11.60;5.78;;;22.60;99.90;;;;;;5001696;28;20179;-37
2023/09/30 11:32:26;;;;;;;10.80;6.20;;;22.60;99.90;;;;;;5001364;28;20183;-38
2023/09/30 11:34:53;;;;;;;10.48;5.93;;;22.50;99.90;;;;;;5009280;28;20221;-37
2023/09/30 11:37:19;;;;;;;9.70;5.47;;;22.30;99.90;;;;;;5011872;28;20273;-35
2023/09/30 11:39:45;;;;;;;9.27;5.82;;;22.30;99.90;;;;;;4998151;28;20262;-39
2023/09/30 11:42:20;;;;;;;9.30;5.82;;;22.30;99.90;;;;;;5014597;28;20278;-37
2023/09/30 11:44:50;;;;;;;9.43;5.78;;;22.30;99.90;;;;;;5005242;28;20211;-37
2023/09/30 11:47:16;;;;;;;10.88;6.28;;;22.30;99.90;;;;;;5004190;28;20214;-38
2023/09/30 11:49:48;;;;;;;10.48;6.00;;;22.30;99.90;;;;;;5017881;28;20193;-37
2023/09/30 11:52:17;;;;;;;12.05;6.28;;;22.50;99.90;;;;;;5006502;28;20215;-37
2023/09/30 11:54:44;;;;;;;10.73;6.22;;;22.70;99.90;;;;;;5009930;28;20236;-39
2023/09/30 11:57:15;;;;;;;10.32;6.07;;;23.00;99.90;;;;;;5010347;28;20214;-38
2023/09/30 11:59:42;;;;;;;10.10;6.20;;;23.10;99.90;;;;;;5010738;28;20198;-39
2023/09/30 12:02:12;;;;;;;9.93;6.18;;;22.90;99.90;;;;;;5021675;28;20183;-39
2023/09/30 12:04:39;;;;;;;9.77;5.82;;;22.80;99.90;;;;;;5006673;28;20194;-39
2023/09/30 12:07:06;;;;;;;8.95;5.85;;;22.80;99.90;;;;;;5019805;28;20210;-39
2023/09/30 12:09:36;;;;;;;11.50;6.07;;;22.80;99.90;;;;;;5008913;28;20178;-35
2023/09/30 12:12:03;;;;;;;9.18;5.82;;;22.60;99.90;;;;;;5020300;28;20175;-39
2023/09/30 12:14:30;;;;;;;9.13;5.35;;;22.40;99.90;;;;;;5000691;28;20198;-37
2023/09/30 12:16:56;;;;;;;10.80;6.35;;;22.50;99.90;;;;;;4991299;28;20193;-37
2023/09/30 12:19:22;;;;;;;12.10;6.72;;;22.70;99.90;;;;;;5001016;28;20190;-36
2023/09/30 12:21:48;;;;;;;10.07;6.18;;;22.50;99.90;;;;;;5006773;28;20187;-39
2023/09/30 12:24:23;;;;;;;10.07;6.07;;;22.40;99.90;;;;;;5009822;28;20219;-39
2023/09/30 12:26:51;;;;;;;11.70;6.18;;;22.40;99.90;;;;;;4999735;28;20198;-38
2023/09/30 12:29:21;;;;;;;10.02;6.13;;;22.60;99.90;;;;;;5014050;28;20658;-39
2023/09/30 12:31:49;;;;;;;10.00;5.80;;;22.80;99.90;;;;;;5001711;28;20182;-36
2023/09/30 12:34:15;;;;;;;10.13;5.60;;;22.80;99.90;;;;;;5023588;28;20213;-39
2023/09/30 12:36:42;;;;;;;10.18;5.70;;;22.90;99.90;;;;;;5001679;28;20231;-37
2023/09/30 12:39:12;;;;;;;9.60;5.35;;;23.00;99.90;;;;;;5040174;23;20221;-32
2023/09/30 12:41:40;;;;;;;10.35;6.30;;;23.10;99.90;;;;;;5014196;28;20182;-31
2023/09/30 12:44:09;;;;;;;9.27;5.80;;;23.30;99.90;;;;;;5030484;28;20187;-31
2023/09/30 12:46:39;;;;;;;11.00;6.13;;;23.50;99.90;;;;;;5027980;28;20207;-31
2023/09/30 12:49:10;;;;;;;8.63;5.40;;;23.30;99.90;;;;;;5007717;28;20240;-32
2023/09/30 12:51:41;;;;;;;9.57;5.70;;;23.10;99.90;;;;;;5019547;28;20205;-31